Data for 01/25/2010

Time Sea-Level Adjusted Pressure Absolute Pressure Temperature Relative Humidity Dew Point   
(mb) (inHg) (mb) (inHg) (C) (F) (%) (C) (F)
00:05 1017 30.03 846 24.98 -7.8 17.9 90 -9.2 15.4
00:10 1017 30.03 846 24.98 -7.9 17.8 90 -9.3 15.3
00:15 1017 30.03 846 24.98 -8 17.5 89 -9.5 14.8
00:20 1017 30.03 846 24.98 -8.3 17.1 90 -9.7 14.6
00:25 1017 30.03 846 24.98 -8.4 16.8 90 -9.8 14.4
00:30 1017 30.03 846 24.98 -8.6 16.6 90 -9.9 14.2
00:35 1017 30.03 846 24.98 -8.8 16.2 89 -10.2 13.6
00:40 1017 30.03 846 24.98 -9.1 15.7 91 -10.3 13.4
00:45 1017 30.03 846 24.98 -9.1 15.6 91 -10.3 13.4
00:50 1017 30.03 846 24.98 -9.2 15.5 91 -10.4 13.3
00:55 1017 30.03 846 24.98 -9.2 15.5 91 -10.4 13.3
01:00 1017 30.03 846 24.98 -9.2 15.5 91 -10.4 13.2
01:05 1017 30.03 846 24.98 -9.2 15.4 90 -10.6 13
01:10 1017 30.03 846 24.98 -9.3 15.2 91 -10.5 13
01:15 1017 30.03 846 24.98 -9.4 15 92 -10.5 13
01:20 1017 30.03 846 24.98 -9.5 15 92 -10.5 13
01:25 1017 30.03 846 24.98 -9.4 15.1 91 -10.6 13
01:30 1017 30.03 846 24.98 -9.5 15 92 -10.5 13.1
01:35 1017 30.03 846 24.98 -9.4 15.2 92 -10.5 13.1
01:40 1017 30.03 846 24.98 -9.4 15.1 92 -10.5 13
01:45 1017 30.03 846 24.98 -9.5 14.8 92 -10.6 13
01:50 1017 30.03 846 24.98 -9.7 14.6 93 -10.6 12.9
01:55 1017 30.03 846 24.98 -9.7 14.5 92 -10.8 12.5
02:00 1017 30.03 846 24.98 -9.7 14.5 92 -10.8 12.5
02:05 1017 30.03 846 24.98 -9.8 14.4 91 -11 12.3
02:10 1017 30.03 846 24.98 -10 14.1 92 -11.1 12.1
02:15 1017 30.03 846 24.98 -10 14 92 -11 12.2
02:20 1017 30.03 846 24.98 -9.9 14.2 92 -10.9 12.3
02:25 1017 30.03 846 24.98 -9.8 14.4 92 -10.9 12.4
02:30 1017 30.03 846 24.98 -9.8 14.3 92 -10.9 12.5
02:35 1017 30.03 846 24.98 -9.7 14.5 91 -10.9 12.5
02:40 1017 30.03 847 25.01 -9.7 14.5 91 -11 12.3
02:45 1017 30.03 847 25.01 -9.8 14.4 91 -11 12.1
02:50 1017 30.03 847 25.01 -9.8 14.3 90 -11.1 12
02:55 1017 30.03 847 25.01 -9.9 14.2 91 -11.1 12
03:00 1017 30.03 847 25.01 -9.9 14.1 91 -11.1 12.1
03:05 1017 30.03 846 24.98 -10.1 13.9 91 -11.2 11.8
03:10 1017 30.03 846 24.98 -10.3 13.5 93 -11.3 11.7
03:15 1017 30.03 846 24.98 -10.4 13.4 93 -11.2 11.8
03:20 1017 30.03 846 24.98 -10.4 13.3 94 -11.3 11.7
03:25 1017 30.03 846 24.98 -10.4 13.3 93 -11.3 11.7
03:30 1017 30.03 846 24.98 -10.5 13.2 94 -11.3 11.6
03:35 1017 30.03 846 24.98 -10.5 13 94 -11.3 11.6
03:40 1017 30.03 846 24.98 -10.6 13 95 -11.3 11.7
03:45 1017 30.03 846 24.98 -10.4 13.3 95 -11 12.2
03:50 1017 30.03 846 24.98 -10.4 13.4 95 -11 12.2
03:55 1017 30.03 846 24.98 -10.3 13.4 94 -11.1 12
04:00 1017 30.03 846 24.98 -10.5 13.1 95 -11.2 11.8
04:05 1017 30.03 846 24.98 -10.6 13 95 -11.2 11.8
04:10 1017 30.03 846 24.98 -10.3 13.4 95 -11 12.2
04:15 1017 30.03 846 24.98 -10.4 13.4 94 -11.1 12
04:20 1017 30.03 846 24.98 -10.4 13.3 95 -11.1 12
04:25 1017 30.03 846 24.98 -10.3 13.4 94 -11.1 12.1
04:30 1017 30.03 846 24.98 -10.4 13.2 93 -11.3 11.7
04:35 1017 30.03 846 24.98 -10.8 12.5 95 -11.4 11.4
04:40 1017 30.03 846 24.98 -10.9 12.5 95 -11.5 11.4
04:45 1017 30.03 846 24.98 -10.8 12.5 95 -11.5 11.4
04:50 1017 30.03 846 24.98 -10.6 12.8 94 -11.4 11.5
04:55 1017 30.03 846 24.98 -10.6 12.9 94 -11.4 11.5
05:00 1017 30.03 846 24.98 -10.6 13 94 -11.3 11.6
05:05 1017 30.03 846 24.98 -10.4 13.3 94 -11.2 11.9
05:10 1017 30.03 846 24.98 -10.1 13.7 93 -11 12.1
05:15 1017 30.03 846 24.98 -10 14 93 -11 12.2
05:20 1017 30.03 846 24.98 -9.9 14.2 92 -11 12.3
05:25 1017 30.03 846 24.98 -9.8 14.3 91 -11 12.2
05:30 1017 30.03 846 24.98 -10 14 91 -11.2 11.9
05:35 1017 30.03 847 25.01 -10.1 13.8 91 -11.3 11.6
05:40 1017 30.03 847 25.01 -10.2 13.6 91 -11.5 11.4
05:45 1018 30.06 847 25.01 -10.3 13.6 92 -11.4 11.5
05:50 1018 30.06 847 25.01 -10.4 13.2 93 -11.4 11.5
05:55 1018 30.06 847 25.01 -10.6 12.9 93 -11.6 11.2
06:00 1018 30.06 847 25.01 -10.7 12.7 94 -11.5 11.4
06:05 1018 30.06 847 25.01 -10.7 12.8 92 -11.7 11
06:10 1018 30.06 847 25.01 -10.9 12.4 94 -11.8 10.8
06:15 1018 30.06 847 25.01 -10.8 12.5 93 -11.7 10.9
06:20 1018 30.06 847 25.01 -10.8 12.5 93 -11.7 10.9
06:25 1018 30.06 847 25.01 -10.9 12.5 93 -11.8 10.8
06:30 1017 30.03 847 25.01 -10.9 12.5 93 -11.8 10.7
06:35 1017 30.03 847 25.01 -10.9 12.3 93 -11.9 10.6
06:40 1017 30.03 847 25.01 -10.9 12.3 92 -11.9 10.5
06:45 1017 30.03 847 25.01 -11 12.1 93 -12 10.5
06:50 1017 30.03 846 24.98 -11 12.1 93 -12 10.4
06:55 1017 30.03 847 25.01 -11.1 12 93 -12 10.5
07:00 1017 30.03 847 25.01 -11.2 11.8 94 -12.1 10.3
07:05 1017 30.03 847 25.01 -11.3 11.7 94 -12.1 10.1
07:10 1017 30.03 847 25.01 -11.3 11.7 93 -12.2 10.1
07:15 1017 30.03 846 24.98 -11.3 11.7 93 -12.1 10.1
07:20 1017 30.03 846 24.98 -11.3 11.8 93 -12.2 10.1
07:25 1017 30.03 846 24.98 -11.3 11.6 93 -12.2 10.1
07:30 1017 30.03 846 24.98 -11.3 11.8 94 -12.1 10.3
07:35 1017 30.03 847 25.01 -11.1 12 94 -11.9 10.7
07:40 1017 30.03 847 25.01 -11 12.2 94 -11.8 10.8
07:45 1017 30.03 847 25.01 -10.8 12.6 94 -11.6 11.2
07:50 1017 30.03 847 25.01 -10.5 13 94 -11.4 11.5
07:55 1017 30.03 847 25.01 -10.3 13.4 93 -11.2 11.8
08:00 1017 30.03 847 25.01 -10.2 13.6 93 -11.2 11.9
08:05 1017 30.03 846 24.98 -10.2 13.6 92 -11.3 11.7
08:10 1017 30.03 846 24.98 -10.4 13.3 93 -11.3 11.6
08:15 1017 30.03 846 24.98 -10.4 13.4 92 -11.4 11.6
08:20 1017 30.03 846 24.98 -10.3 13.5 93 -11.2 11.8
08:25 1017 30.03 846 24.98 -10.2 13.7 91 -11.3 11.6
08:30 1017 30.03 846 24.98 -10.3 13.4 91 -11.5 11.4
08:35 1017 30.03 846 24.98 -10.4 13.4 92 -11.5 11.3
08:40 1017 30.03 846 24.98 -10.3 13.5 91 -11.4 11.4
08:45 1017 30.03 846 24.98 -10.1 13.8 91 -11.3 11.7
08:50 1017 30.03 847 25.01 -10 13.9 91 -11.2 11.8
08:55 1017 30.03 847 25.01 -9.8 14.3 90 -11.1 12
09:00 1017 30.03 847 25.01 -9.7 14.6 91 -10.9 12.3
09:05 1017 30.03 847 25.01 -9.5 15 91 -10.7 12.7
09:10 1017 30.03 847 25.01 -9.2 15.5 88 -10.8 12.6
09:15 1017 30.03 847 25.01 -9.1 15.7 88 -10.8 12.6
09:20 1017 30.03 847 25.01 -8.7 16.3 86 -10.7 12.8
09:25 1017 30.03 847 25.01 -8.2 17.2 82 -10.8 12.5
09:30 1017 30.03 847 25.01 -7.8 18.1 81 -10.5 13.2
09:35 1017 30.03 847 25.01 -7.2 19 78 -10.5 13.2
09:40 1017 30.03 847 25.01 -7.2 19.1 77 -10.5 13.1
09:45 1017 30.03 847 25.01 -7.5 18.4 79 -10.6 12.9
09:50 1018 30.06 847 25.01 -7.6 18.3 80 -10.5 13.1
09:55 1017 30.03 847 25.01 -7.7 18.2 79 -10.7 12.8
10:00 1017 30.03 847 25.01 -7.6 18.3 81 -10.4 13.4
10:05 1018 30.06 847 25.01 -6.8 19.8 77 -10.2 13.6
10:10 1018 30.06 847 25.01 -6.6 20.2 75 -10.3 13.5
10:15 1018 30.06 847 25.01 -6.6 20.1 76 -10.2 13.6
10:20 1018 30.06 847 25.01 -6.5 20.3 74 -10.5 13.2
10:25 1018 30.06 847 25.01 -6.4 20.4 73 -10.5 13.1
10:30 1018 30.06 847 25.01 -6.4 20.5 73 -10.4 13.2
10:35 1018 30.06 847 25.01 -6.6 20.2 74 -10.5 13.1
10:40 1018 30.06 847 25.01 -6.3 20.7 72 -10.4 13.2
10:45 1018 30.06 847 25.01 -5.5 22 69 -10.4 13.2
10:50 1018 30.06 847 25.01 -5.5 22 70 -10.2 13.7
10:55 1018 30.06 847 25.01 -5.6 21.9 71 -10.1 13.8
11:00 1018 30.06 847 25.01 -6.1 21 73 -10.3 13.5
11:05 1018 30.06 847 25.01 -6.2 20.9 73 -10.3 13.4
11:10 1018 30.06 847 25.01 -5.5 22.1 69 -10.3 13.5
11:15 1018 30.06 847 25.01 -5.3 22.5 68 -10.2 13.6
11:20 1018 30.06 847 25.01 -4.8 23.3 67 -10.1 13.8
11:25 1018 30.06 847 25.01 -4.9 23.1 68 -10 13.9
11:30 1017 30.03 847 25.01 -5.2 22.7 69 -9.9 14.1
11:35 1018 30.06 847 25.01 -5.3 22.4 71 -9.8 14.3
11:40 1017 30.03 847 25.01 -5.6 22 72 -9.9 14.2
11:45 1017 30.03 847 25.01 -6 21.1 74 -9.9 14.2
11:50 1017 30.03 847 25.01 -5.6 21.9 72 -9.8 14.3
11:55 1017 30.03 846 24.98 -4.9 23.2 69 -9.7 14.5
12:00 1017 30.03 846 24.98 -5.1 22.9 69 -9.9 14.2
12:05 1017 30.03 846 24.98 -5.3 22.5 70 -10 14
12:10 1017 30.03 846 24.98 -6.3 20.6 76 -9.9 14.2
12:15 1017 30.03 846 24.98 -5.7 21.7 73 -9.9 14.2
12:20 1017 30.03 846 24.98 -5.3 22.5 71 -9.7 14.5
12:25 1017 30.03 846 24.98 -5 23 69 -9.8 14.4
12:30 1017 30.03 846 24.98 -4.8 23.4 69 -9.5 14.8
12:35 1017 30.03 846 24.98 -4.9 23.1 71 -9.3 15.2
12:40 1017 30.03 846 24.98 -5.6 22 74 -9.5 14.9
12:45 1017 30.03 846 24.98 -5.7 21.8 74 -9.7 14.6
12:50 1017 30.03 846 24.98 -5.3 22.5 72 -9.6 14.7
12:55 1017 30.03 846 24.98 -4.9 23.2 71 -9.3 15.2
13:00 1017 30.03 846 24.98 -5.2 22.6 73 -9.4 15.2
13:05 1016 30 846 24.98 -4.9 23.1 72 -9.3 15.2
13:10 1016 30 846 24.98 -5.2 22.7 73 -9.3 15.3
13:15 1016 30 846 24.98 -4.6 23.7 70 -9.2 15.4
13:20 1016 30 846 24.98 -4.8 23.4 72 -9.1 15.5
13:25 1016 30 845 24.95 -5.1 22.8 72 -9.4 15.1
13:30 1016 30 845 24.95 -4.8 23.4 71 -9.2 15.4
13:35 1016 30 845 24.95 -4.7 23.5 74 -8.8 16.2
13:40 1016 30 845 24.95 -5.2 22.6 76 -8.8 16.2
13:45 1016 30 845 24.95 -4.7 23.5 72 -9 15.8
13:50 1016 30 845 24.95 -4.1 24.6 71 -8.7 16.4
13:55 1016 30 845 24.95 -4.1 24.6 71 -8.5 16.6
14:00 1016 30 845 24.95 -4.2 24.5 71 -8.7 16.3
14:05 1016 30 845 24.95 -4 24.7 70 -8.7 16.3
14:10 1016 30 845 24.95 -4.3 24.3 70 -9 15.8
14:15 1016 30 845 24.95 -4.8 23.3 73 -9 15.8
14:20 1016 30 845 24.95 -4.6 23.7 73 -8.8 16.2
14:25 1016 30 845 24.95 -4.2 24.4 70 -8.8 16.1
14:30 1016 30 845 24.95 -4.4 24.1 72 -8.7 16.4
14:35 1016 30 845 24.95 -4.7 23.5 74 -8.7 16.4
14:40 1016 30 845 24.95 -4.2 24.5 72 -8.5 16.7
14:45 1016 30 845 24.95 -4.1 24.7 73 -8.2 17.3
14:50 1016 30 845 24.95 -3.9 25 72 -8.2 17.2
14:55 1016 30 845 24.95 -3.8 25.1 72 -8.2 17.2
15:00 1016 30 845 24.95 -3.9 25 71 -8.4 17
15:05 1016 30 845 24.95 -4.1 24.6 73 -8.2 17.2
15:10 1016 30 845 24.95 -3.9 25.1 71 -8.3 17
15:15 1016 30 845 24.95 -3.4 25.8 68 -8.5 16.7
15:20 1016 30 845 24.95 -2.8 26.9 68 -8 17.7
15:25 1016 30 845 24.95 -2.2 28.1 64 -8.1 17.3
15:30 1016 30 845 24.95 -1.7 29 61 -8.1 17.3
15:35 1016 30 845 24.95 -1.4 29.5 62 -7.7 18.2
15:40 1016 30 845 24.95 -3 26.6 67 -8.2 17.2
15:45 1016 30 845 24.95 -3 26.5 65 -8.8 16.2
15:50 1016 30 845 24.95 -3.2 26.3 70 -7.9 17.7
15:55 1016 30 845 24.95 -4.2 24.5 70 -8.8 16.2
16:00 1015 29.97 845 24.95 -4.5 24 72 -8.8 16.2
16:05 1016 30 845 24.95 -4.3 24.3 71 -8.7 16.3
16:10 1016 30 845 24.95 -4 24.7 71 -8.5 16.6
16:15 1016 30 845 24.95 -3.9 25 71 -8.5 16.7
16:20 1015 29.97 845 24.95 -4 24.8 72 -8.4 16.9
16:25 1015 29.97 845 24.95 -4.1 24.6 72 -8.5 16.8
16:30 1015 29.97 845 24.95 -4.1 24.7 72 -8.3 17
16:35 1015 29.97 845 24.95 -3.9 25 72 -8.3 17.1
16:40 1015 29.97 845 24.95 -3.8 25.2 73 -8 17.7
16:45 1015 29.97 845 24.95 -3.7 25.4 73 -7.8 17.9
16:50 1016 30 845 24.95 -3.6 25.5 74 -7.6 18.4
16:55 1016 30 845 24.95 -3.9 25 76 -7.5 18.5
17:00 1016 30 845 24.95 -4.2 24.4 76 -7.8 17.9
17:05 1016 30 845 24.95 -4.6 23.8 77 -8.1 17.5
17:10 1016 30 845 24.95 -5 23 78 -8.3 17.1
17:15 1016 30 845 24.95 -5.5 22.2 79 -8.6 16.6
17:20 1016 30 845 24.95 -6 21.2 80 -8.8 16.1
17:25 1016 30 845 24.95 -6.9 19.5 84 -9.2 15.5
17:30 1016 30 845 24.95 -7.6 18.4 87 -9.4 15
17:35 1016 30 845 24.95 -7.9 17.8 88 -9.5 14.9
17:40 1016 30 845 24.95 -8 17.5 89 -9.5 14.8
17:45 1016 30 845 24.95 -8 17.6 89 -9.5 14.9
17:50 1016 30 845 24.95 -7.9 17.8 89 -9.5 15
17:55 1016 30 845 24.95 -7.9 17.7 89 -9.5 14.9
18:00 1016 30 845 24.95 -7.9 17.8 88 -9.5 14.9
18:05 1016 30 845 24.95 -7.8 17.9 88 -9.4 15
18:10 1016 30 845 24.95 -7.7 18.2 87 -9.5 14.9
18:15 1016 30 845 24.95 -7.5 18.5 86 -9.5 15
18:20 1016 30 845 24.95 -7.5 18.6 87 -9.3 15.2
18:25 1016 30 845 24.95 -7.5 18.5 87 -9.4 15.1
18:30 1016 30 845 24.95 -7.6 18.4 87 -9.3 15.3
18:35 1016 30 845 24.95 -7.3 18.9 86 -9.3 15.3
18:40 1016 30 845 24.95 -7.1 19.1 85 -9.2 15.5
18:45 1016 30 845 24.95 -7.1 19.3 86 -9.1 15.7
18:50 1016 30 845 24.95 -7 19.4 85 -9.1 15.6
18:55 1016 30 845 24.95 -7 19.4 85 -9 15.7
19:00 1016 30 845 24.95 -6.8 19.8 84 -9.1 15.6
19:05 1016 30 845 24.95 -7 19.4 85 -9.1 15.6
19:10 1016 30 845 24.95 -6.9 19.5 85 -9.1 15.7
19:15 1016 30 845 24.95 -6.9 19.6 84 -9.1 15.6
19:20 1016 30 845 24.95 -7.1 19.3 85 -9.2 15.5
19:25 1016 30 845 24.95 -7.2 19 87 -9.1 15.6
19:30 1016 30 845 24.95 -7.4 18.8 87 -9.1 15.6
19:35 1016 30 845 24.95 -7.4 18.8 87 -9.1 15.6
19:40 1016 30 845 24.95 -7.4 18.6 87 -9.2 15.5
19:45 1016 30 845 24.95 -7.5 18.5 87 -9.3 15.3
19:50 1016 30 845 24.95 -7.4 18.7 87 -9.3 15.3
19:55 1016 30 845 24.95 -7.3 18.8 87 -9.1 15.6
20:00 1016 30 845 24.95 -7.2 19.1 86 -9.1 15.6
20:05 1016 30 845 24.95 -7.2 19 87 -9.1 15.7
20:10 1016 30 845 24.95 -7.2 19 86 -9.1 15.6
20:15 1016 30 845 24.95 -7.1 19.3 86 -9 15.8
20:20 1016 30 845 24.95 -7 19.4 86 -9 15.9
20:25 1016 30 845 24.95 -6.9 19.6 86 -8.9 16
20:30 1016 30 845 24.95 -6.9 19.6 86 -8.9 16
20:35 1015 29.97 845 24.95 -6.9 19.5 86 -8.8 16.1
20:40 1015 29.97 845 24.95 -6.7 19.9 86 -8.7 16.4
20:45 1015 29.97 844 24.92 -6.6 20 86 -8.6 16.4
20:50 1015 29.97 844 24.92 -6.6 20.1 86 -8.5 16.6
20:55 1015 29.97 844 24.92 -6.5 20.4 86 -8.4 16.9
21:00 1015 29.97 844 24.92 -5.7 21.7 85 -7.9 17.8
21:05 1015 29.97 844 24.92 -5.4 22.4 84 -7.7 18.1
21:10 1015 29.97 844 24.92 -5.2 22.6 84 -7.6 18.3
21:15 1015 29.97 844 24.92 -5 23 83 -7.5 18.5
21:20 1015 29.97 844 24.92 -4.9 23.2 81 -7.7 18.2
21:25 1015 29.97 844 24.92 -5.3 22.4 84 -7.6 18.3
21:30 1015 29.97 844 24.92 -5.5 22.1 84 -7.8 17.9
21:35 1015 29.97 844 24.92 -5.6 21.9 84 -7.9 17.9
21:40 1015 29.97 844 24.92 -5.8 21.5 85 -7.9 17.7
21:45 1015 29.97 844 24.92 -5.8 21.5 86 -7.9 17.8
21:50 1015 29.97 844 24.92 -5.8 21.5 85 -8 17.6
21:55 1015 29.97 844 24.92 -5.8 21.5 84 -8.1 17.5
22:00 1015 29.97 844 24.92 -6.4 20.6 87 -8.2 17.3
22:05 1015 29.97 844 24.92 -6.4 20.4 87 -8.3 17.1
22:10 1015 29.97 844 24.92 -6.3 20.6 87 -8.1 17.3
22:15 1015 29.97 844 24.92 -6.1 21 86 -8 17.5
22:20 1015 29.97 844 24.92 -5.9 21.4 85 -8 17.6
22:25 1015 29.97 844 24.92 -5.8 21.5 85 -7.9 17.7
22:30 1015 29.97 844 24.92 -5.9 21.4 85 -8 17.6
22:35 1015 29.97 844 24.92 -6 21.2 85 -8.1 17.5
22:40 1015 29.97 844 24.92 -6.1 21 87 -7.9 17.7
22:45 1015 29.97 845 24.95 -6 21.3 85 -8.2 17.3
22:50 1015 29.97 845 24.95 -6.3 20.7 86 -8.2 17.2
22:55 1015 29.97 845 24.95 -6.8 19.8 89 -8.3 17
23:00 1016 30 845 24.95 -6.7 19.9 90 -8.1 17.4
23:05 1016 30 845 24.95 -6.6 20.2 90 -8 17.7
23:10 1015 29.97 845 24.95 -6.6 20.2 88 -8.2 17.2
23:15 1015 29.97 845 24.95 -7 19.5 91 -8.2 17.2
23:20 1015 29.97 845 24.95 -7.3 18.9 92 -8.4 16.9
23:25 1015 29.97 844 24.92 -7.4 18.6 92 -8.5 16.6
23:30 1015 29.97 844 24.92 -7.4 18.6 91 -8.6 16.5
23:35 1015 29.97 844 24.92 -6.7 20 92 -7.7 18.1
23:40 1015 29.97 845 24.95 -5.8 21.6 88 -7.4 18.6
23:45 1015 29.97 844 24.92 -5.5 22.1 86 -7.4 18.6
23:50 1015 29.97 844 24.92 -6.5 20.3 89 -8 17.5
23:55 1015 29.97 844 24.92 -7 19.4 92 -8 17.5
24:00 1015 29.97 844 24.92 -6.7 19.9 94 -7.5 18.5